Islandton, SC (29929)

9:06 PM EDT on July 23, 2014 (GMT -0400)
KQ4WH, Skunkworks (KSCSMOAK1) Elev 108 ft | 33.09 °N, 80.81 °W | Change Station

Current weather conditions updated 1 second ago

Clear
Clear
79.0 °F
Feels Like 83 °F
N
0.0
Wind Variable Wind from SSE
Gusts 1.1 mph

Tomorrow is forecast to be Warmer than today.

Today
High -- | Low -- °F
--% Chance of Precip.
Yesterday
High -- | Low -- °F
Precip. -- in
6:30 AM 8:28 PM
Waning Crescent, 8% visible
Pressure 29.99 in
Visibility 10.0 miles
Clouds Clear
Heat Index 83 °F
Dew Point 74 °F
Humidity 84%
Rainfall 0.00 in
Snow Depth Not available.
UV 0 out of 12
Pollen 3.50 out of 12
Air Quality Not available.
Flu Activity Not available.
METAR KRBW 240055Z AUTO 13003KT 10SM CLR 26/26 A2999 RMK AO2

More Conditions Fewer Conditions

Pressure 29.99 in
Visibility 10.0 miles
Clouds Clear
Heat Index 83 °F
Dew Point 74 °F
Humidity 84%
Rainfall 0.00 in
Snow Depth Not available.
UV 0 out of 12
Pollen 3.50 out of 12
Air Quality Not available.
Flu Activity Not available.
METAR KRBW 240055Z AUTO 13003KT 10SM CLR 26/26 A2999 RMK AO2

More Conditions Fewer Conditions

10-Day Weather Forecast

Almanac

Astronomy

Jul. 23, 2014 Rise Set
Actual Time 6:30 AM EDT 8:28 PM EDT
Civil Twilight 6:03 AM EDT 8:56 PM EDT
Nautical Twilight 5:29 AM EDT 9:29 PM EDT
Astronomical Twilight 4:54 AM EDT 10:05 PM EDT
Moon 3:47 AM EDT (7/23) 5:57 PM EDT (7/23)
Length of Visible Light 14h 52m
Length of Day
13h 57m
Tomorrow will be 1m 17s shorter.
Waning Crescent, 8% of the Moon is Illuminated
Today
Waning Crescent
Jul 26
New
Aug 3
First Quarter
Aug 10
Full
Aug 17
Last Quarter

Today's Extremes

State Highs State Lows

Community

WunderPhotos

Upload Photos

1,736,839 photos uploaded!

Nearby

Snow Depth

Station Depth Elevation
No new snow has been reported.

Earthquake Activity

City Distance Mag. Time & Date
No recent earthquake activity has been reported nearby.
Minimum magnitude displayed is 2.5.

Coastal Water Temperatures

Place Temperature
No Stations Reporting

Nearby Weather Stations

Station Location Temp. Heat Index Dew Point Humidity Wind Precip. Elev Updated Type
KQ4WH, Skunkworks, Smoaks, SC 79.0 °F 83 °F 74 °F 84% SSE  at  0.0 mph 0.00 in / hr 108 ft 9:06 PM EDT Rapid Fire
Joe Miley Road, Brunson, SC 82.4 °F 90 °F 76 °F 81% ESE  at  0.0 mph - / hr 130 ft 8:56 PM EDT Normal
RAWS SAVANNAH PORTABLE SC, Yemassee, SC 82 °F 89 °F 75 °F 79% SE  at  2 mph 0.00 in / hr 6 ft 8:23 PM EDT MADIS

Show More Stations Show Fewer Stations